createdAt,value
2023-03-03T00:03:09.629Z,15.65
2023-03-03T00:08:14.175Z,17.90
2023-03-03T00:13:18.421Z,16.67
2023-03-03T00:18:27.777Z,17.95
2023-03-03T00:23:36.229Z,18.13
2023-03-03T00:28:45.395Z,18.10
2023-03-03T00:33:50.646Z,18.05
2023-03-03T00:38:55.980Z,18.85
2023-03-03T00:43:59.473Z,18.85
2023-03-03T00:49:02.852Z,19.17
2023-03-03T00:54:07.362Z,18.55
2023-03-03T00:59:10.592Z,18.95
2023-03-03T01:04:14.673Z,16.58
2023-03-03T01:09:20.697Z,18.38
2023-03-03T01:14:24.062Z,20.13
2023-03-03T01:19:27.889Z,17.13
2023-03-03T01:24:32.795Z,16.00
2023-03-03T01:29:36.512Z,16.98
2023-03-03T01:34:39.628Z,16.55
2023-03-03T01:39:44.142Z,15.82
2023-03-03T01:44:47.546Z,15.88
2023-03-03T01:49:53.305Z,15.63
2023-03-03T01:55:00.359Z,17.13
2023-03-03T02:00:04.087Z,16.98
2023-03-03T02:05:16.235Z,16.10
2023-03-03T02:10:22.670Z,15.75
2023-03-03T02:15:26.718Z,15.55
2023-03-03T02:20:33.892Z,15.20
2023-03-03T02:25:43.564Z,15.10
2023-03-03T02:30:48.191Z,17.77
2023-03-03T02:35:51.540Z,14.68
2023-03-03T02:41:00.388Z,16.95
2023-03-03T02:46:05.100Z,15.38
2023-03-03T02:51:08.386Z,17.75
2023-03-03T02:56:11.551Z,17.83
2023-03-03T03:01:16.090Z,18.50
2023-03-03T03:06:20.892Z,18.83
2023-03-03T03:11:24.846Z,18.33
2023-03-03T03:16:29.496Z,16.30
2023-03-03T03:21:33.120Z,16.33
2023-03-03T03:26:37.070Z,17.00
2023-03-03T03:31:43.833Z,16.85
2023-03-03T03:36:47.157Z,16.58
2023-03-03T03:41:52.767Z,15.55
2023-03-03T03:46:57.356Z,16.67
2023-03-03T03:52:02.043Z,16.52
2023-03-03T03:57:08.626Z,16.23
2023-03-03T04:02:13.956Z,15.82
2023-03-03T04:07:17.363Z,16.13
2023-03-03T04:12:21.051Z,17.33
2023-03-03T04:17:25.718Z,17.70
2023-03-03T04:22:30.210Z,17.73
2023-03-03T04:27:34.642Z,16.75
2023-03-03T04:32:39.311Z,18.08
2023-03-03T04:37:45.361Z,18.25
2023-03-03T04:42:49.660Z,17.45
2023-03-03T04:47:55.030Z,17.88
2023-03-03T04:52:59.402Z,18.42
2023-03-03T04:58:03.520Z,17.05
2023-03-03T05:03:08.491Z,18.67
2023-03-03T05:08:11.763Z,17.38
2023-03-03T05:13:15.387Z,18.67
2023-03-03T05:18:20.792Z,17.20
2023-03-03T05:23:24.152Z,17.10
2023-03-03T05:28:27.285Z,17.95
2023-03-03T05:33:31.844Z,18.30
2023-03-03T05:38:35.071Z,18.52
2023-03-03T05:43:38.162Z,16.88
2023-03-03T05:48:43.075Z,20.02
2023-03-03T05:53:46.344Z,18.73
2023-03-03T05:58:49.429Z,19.00
2023-03-03T06:03:54.164Z,15.57
2023-03-03T06:08:57.416Z,17.23
2023-03-03T06:14:01.516Z,14.05
2023-03-03T06:19:06.238Z,14.65
2023-03-03T06:24:09.614Z,14.73
2023-03-03T06:29:14.641Z,11.50
2023-03-03T06:34:20.176Z,11.57
2023-03-03T06:39:23.348Z,12.52
2023-03-03T06:44:28.767Z,13.25
2023-03-03T06:49:33.539Z,13.05
2023-03-03T06:54:36.866Z,13.35
2023-03-03T06:59:40.197Z,13.88
2023-03-03T07:04:45.566Z,11.93
2023-03-03T07:09:49.801Z,11.50
2023-03-03T07:14:55.922Z,10.32
2023-03-03T07:20:02.735Z,9.48
2023-03-03T07:25:15.948Z,9.48
2023-03-03T07:30:24.955Z,8.10
2023-03-03T07:35:37.506Z,7.88
2023-03-03T07:40:43.388Z,9.45
2023-03-03T07:45:46.838Z,8.73
2023-03-03T07:50:51.676Z,8.63
2023-03-03T07:55:55.427Z,8.90
2023-03-03T08:01:13.407Z,9.43
2023-03-03T08:06:30.725Z,8.30
2023-03-03T08:11:33.828Z,8.60
2023-03-03T08:16:38.464Z,9.57
2023-03-03T08:21:43.013Z,8.05
2023-03-03T08:26:46.270Z,10.02
2023-03-03T08:31:49.514Z,9.45
2023-03-03T08:36:54.324Z,26.58
2023-03-03T08:41:57.795Z,9.23
2023-03-03T08:47:01.258Z,7.63
2023-03-03T08:52:05.945Z,7.47
2023-03-03T08:57:09.215Z,7.05
2023-03-03T09:02:12.417Z,6.88
2023-03-03T09:07:16.993Z,5.65
2023-03-03T09:12:21.048Z,7.35
2023-03-03T09:17:26.309Z,7.50
2023-03-03T09:22:37.477Z,7.57
2023-03-03T09:27:41.716Z,7.05
2023-03-03T09:32:44.909Z,7.05
2023-03-03T09:37:50.752Z,6.43
2023-03-03T09:43:00.719Z,5.75
2023-03-03T09:48:12.873Z,5.82
2023-03-03T09:53:20.816Z,5.90
2023-03-03T09:58:29.064Z,6.30
2023-03-03T10:03:46.682Z,6.18
2023-03-03T10:09:04.373Z,5.75
2023-03-03T10:14:22.506Z,6.38
2023-03-03T10:19:34.667Z,5.30
2023-03-03T10:24:42.315Z,4.97
2023-03-03T10:29:50.609Z,5.65
2023-03-03T10:35:04.349Z,5.28
2023-03-03T10:40:18.704Z,5.07
2023-03-03T10:45:35.258Z,5.38
2023-03-03T10:50:48.235Z,5.55
2023-03-03T10:55:59.098Z,4.63
2023-03-03T11:01:06.013Z,4.93
2023-03-03T11:06:12.043Z,4.90
2023-03-03T11:11:19.372Z,5.35
2023-03-03T11:16:29.232Z,4.47
2023-03-03T11:21:36.249Z,3.35
2023-03-03T11:26:45.350Z,3.90
2023-03-03T11:31:50.335Z,4.57
2023-03-03T11:36:57.236Z,4.57
2023-03-03T11:42:08.454Z,4.10
2023-03-03T11:47:15.644Z,4.80
2023-03-03T11:52:23.639Z,4.13
2023-03-03T11:57:30.798Z,3.78
2023-03-03T12:02:44.023Z,4.13
2023-03-03T12:07:51.079Z,3.78
2023-03-03T12:13:00.996Z,3.05
2023-03-03T12:18:20.137Z,3.65
2023-03-03T12:23:35.374Z,3.47
2023-03-03T12:28:42.684Z,3.28
2023-03-03T12:33:54.111Z,2.70
2023-03-03T12:39:02.772Z,2.80
2023-03-03T12:44:09.460Z,2.38
2023-03-03T12:49:12.668Z,2.42
2023-03-03T12:54:21.174Z,11.73
2023-03-03T12:59:32.242Z,3.10
2023-03-03T13:09:45.813Z,2.50
2023-03-03T13:14:53.391Z,2.50
2023-03-03T13:20:00.094Z,2.10
2023-03-03T13:25:06.251Z,2.42
2023-03-03T13:30:16.720Z,2.38
2023-03-03T13:35:25.400Z,1.38
2023-03-03T13:40:35.062Z,2.28
2023-03-03T13:45:43.886Z,1.90
2023-03-03T13:50:50.034Z,2.00
2023-03-03T13:55:56.742Z,3.03
2023-03-03T14:01:02.742Z,2.75
2023-03-03T14:06:06.995Z,2.60
2023-03-03T14:11:12.067Z,2.50
2023-03-03T14:16:20.295Z,2.45
2023-03-03T14:21:28.317Z,3.10
2023-03-03T14:26:31.769Z,3.72
2023-03-03T14:31:43.385Z,4.10
2023-03-03T14:36:46.531Z,3.33
2023-03-03T14:41:51.839Z,2.90
2023-03-03T14:47:05.814Z,2.60
2023-03-03T14:52:19.688Z,2.75
2023-03-03T14:57:23.749Z,3.03
2023-03-03T15:02:44.860Z,3.65
2023-03-03T15:07:50.362Z,3.42
2023-03-03T15:12:53.503Z,3.78
2023-03-03T15:18:03.586Z,9.73
2023-03-03T15:23:15.610Z,7.25
2023-03-03T15:28:23.610Z,5.70
2023-03-03T15:33:30.652Z,2.22
2023-03-03T15:38:41.677Z,1.67
2023-03-03T15:43:48.093Z,1.50
2023-03-03T15:48:55.910Z,1.65
2023-03-03T15:54:06.348Z,1.90
2023-03-03T15:59:27.371Z,2.13
2023-03-03T16:04:31.234Z,2.08
2023-03-03T16:09:42.521Z,2.17
2023-03-03T16:14:51.091Z,1.55
2023-03-03T16:19:57.720Z,1.80
2023-03-03T16:25:07.312Z,1.92
2023-03-03T16:30:27.135Z,2.28
2023-03-03T16:35:32.791Z,7.40
2023-03-03T16:40:39.765Z,2.40
2023-03-03T16:45:43.101Z,2.00
2023-03-03T16:50:49.354Z,2.42
2023-03-03T16:55:58.279Z,1.83
2023-03-03T17:01:08.483Z,1.80
2023-03-03T17:06:15.049Z,2.05
2023-03-03T17:11:25.024Z,1.70
2023-03-03T17:16:39.869Z,1.80
2023-03-03T17:21:59.187Z,1.60
2023-03-03T17:27:09.535Z,1.42
2023-03-03T17:32:20.397Z,2.47
2023-03-03T17:37:30.877Z,2.65
2023-03-03T17:42:38.841Z,2.27
2023-03-03T17:47:47.254Z,1.92
2023-03-03T17:53:01.637Z,2.20
2023-03-03T17:58:22.423Z,1.58
2023-03-03T18:03:43.666Z,1.27
2023-03-03T18:09:02.008Z,2.17
2023-03-03T18:14:35.243Z,1.40
2023-03-03T18:19:59.157Z,1.35
2023-03-03T18:25:05.750Z,1.20
2023-03-03T18:30:29.933Z,1.25
2023-03-03T18:35:35.510Z,4.50
2023-03-03T18:40:49.625Z,3.88
2023-03-03T18:45:54.314Z,1.70
2023-03-03T18:50:57.475Z,2.15
2023-03-03T18:56:01.525Z,1.55
2023-03-03T19:01:15.637Z,2.20
2023-03-03T19:06:31.020Z,1.83
2023-03-03T19:11:37.173Z,1.95
2023-03-03T19:16:41.743Z,2.50
2023-03-03T19:21:48.127Z,2.28
2023-03-03T19:27:00.153Z,1.98
2023-03-03T19:32:12.489Z,2.60
2023-03-03T19:37:23.809Z,3.60
2023-03-03T19:42:34.974Z,2.78
2023-03-03T19:52:44.649Z,2.42
2023-03-03T19:57:54.067Z,2.60
2023-03-03T20:03:01.340Z,2.97
2023-03-03T20:08:10.524Z,2.58
2023-03-03T20:13:19.502Z,2.97
2023-03-03T20:18:49.524Z,2.25
2023-03-03T20:24:01.011Z,2.75
2023-03-03T20:29:08.842Z,3.22
2023-03-03T20:34:14.605Z,2.70
2023-03-03T20:39:24.372Z,2.65
2023-03-03T20:44:34.538Z,3.08
2023-03-03T20:49:48.538Z,2.78
2023-03-03T20:54:58.037Z,2.30
2023-03-03T21:00:03.686Z,2.40
2023-03-03T21:05:12.270Z,3.28
2023-03-03T21:10:17.831Z,2.72
2023-03-03T21:15:28.750Z,3.13
2023-03-03T21:20:32.663Z,3.00
2023-03-03T21:25:47.985Z,3.25
2023-03-03T21:31:01.841Z,4.35
2023-03-03T21:36:07.043Z,3.08
2023-03-03T21:41:12.795Z,3.35
2023-03-03T21:46:18.678Z,3.15
2023-03-03T21:51:24.292Z,4.22
2023-03-03T21:56:28.774Z,8.88
2023-03-03T22:01:31.924Z,2.95
2023-03-03T22:06:35.194Z,3.95
2023-03-03T22:11:39.897Z,4.10
2023-03-03T22:16:43.441Z,3.63
2023-03-03T22:21:47.829Z,2.60
2023-03-03T22:26:52.297Z,2.95
2023-03-03T22:31:55.665Z,4.00
2023-03-03T22:36:58.996Z,3.33
2023-03-03T22:42:03.700Z,3.08
2023-03-03T22:47:07.015Z,2.65
2023-03-03T22:52:10.308Z,3.25
2023-03-03T22:57:14.870Z,2.95
2023-03-03T23:02:18.014Z,2.42
2023-03-03T23:07:21.164Z,2.97
2023-03-03T23:12:25.644Z,2.75
2023-03-03T23:17:28.839Z,2.88
2023-03-03T23:22:31.959Z,2.17
2023-03-03T23:27:36.410Z,2.58
2023-03-03T23:32:39.488Z,2.47
2023-03-03T23:37:42.599Z,2.17
2023-03-03T23:42:47.098Z,3.05
2023-03-03T23:47:50.273Z,2.72
2023-03-03T23:52:53.445Z,2.80
2023-03-03T23:57:57.950Z,2.63
